createdAt,value
2018-10-02T00:02:22.634Z,6.93
2018-10-02T00:04:52.014Z,6.92
2018-10-02T00:07:21.428Z,6.99
2018-10-02T00:09:50.864Z,6.97
2018-10-02T00:12:25.534Z,7.02
2018-10-02T00:14:55.016Z,7.03
2018-10-02T00:17:24.437Z,7.06
2018-10-02T00:19:53.743Z,7.13
2018-10-02T00:22:23.194Z,7.13
2018-10-02T00:24:52.510Z,7.17
2018-10-02T00:27:21.970Z,7.29
2018-10-02T00:29:51.417Z,7.21
2018-10-02T00:32:20.931Z,7.21
2018-10-02T00:34:50.323Z,7.28
2018-10-02T00:37:19.803Z,7.25
2018-10-02T00:39:49.081Z,7.27
2018-10-02T00:42:18.563Z,7.25
2018-10-02T00:44:48.031Z,7.23
2018-10-02T00:47:17.395Z,7.19
2018-10-02T00:49:46.857Z,7.24
2018-10-02T00:52:16.326Z,7.21
2018-10-02T00:54:45.892Z,7.21
2018-10-02T00:57:15.234Z,7.11
2018-10-02T00:59:44.757Z,7.13
2018-10-02T01:02:14.123Z,7.11
2018-10-02T01:04:43.503Z,7.09
2018-10-02T01:07:12.986Z,7.07
2018-10-02T01:09:42.282Z,7.04
2018-10-02T01:12:11.705Z,7.07
2018-10-02T01:14:41.135Z,7.12
2018-10-02T01:17:10.574Z,7.07
2018-10-02T01:19:39.922Z,7.04
2018-10-02T01:22:09.358Z,7.09
2018-10-02T01:24:38.730Z,7.11
2018-10-02T01:27:08.213Z,7.12
2018-10-02T01:29:37.546Z,7.18
2018-10-02T01:32:06.979Z,7.16
2018-10-02T01:34:36.304Z,7.20
2018-10-02T01:37:05.745Z,7.11
2018-10-02T01:39:35.068Z,7.14
2018-10-02T01:42:04.511Z,7.18
2018-10-02T01:44:33.917Z,7.18
2018-10-02T01:47:03.254Z,7.12
2018-10-02T01:49:32.658Z,7.12
2018-10-02T01:52:01.988Z,7.10
2018-10-02T01:54:31.398Z,7.10
2018-10-02T01:57:00.775Z,7.03
2018-10-02T01:59:30.231Z,7.03
2018-10-02T02:01:59.771Z,6.99
2018-10-02T02:04:29.174Z,6.96
2018-10-02T02:06:58.530Z,6.90
2018-10-02T02:09:27.949Z,6.91
2018-10-02T02:11:57.331Z,6.91
2018-10-02T02:14:26.794Z,6.83
2018-10-02T02:16:56.762Z,6.73
2018-10-02T02:19:26.179Z,6.70
2018-10-02T02:21:56.247Z,6.67
2018-10-02T02:24:26.589Z,6.63
2018-10-02T02:26:56.021Z,6.65
2018-10-02T02:29:25.541Z,6.61
2018-10-02T02:31:54.953Z,6.61
2018-10-02T02:34:24.333Z,6.58
2018-10-02T02:36:53.746Z,6.61
2018-10-02T02:39:23.147Z,6.58
2018-10-02T02:41:52.568Z,6.57
2018-10-02T02:44:21.970Z,6.56
2018-10-02T02:46:51.324Z,6.62
2018-10-02T02:49:25.942Z,6.58
2018-10-02T02:51:55.418Z,6.56
2018-10-02T02:54:24.806Z,6.54
2018-10-02T02:56:54.895Z,6.52
2018-10-02T02:59:24.346Z,6.51
2018-10-02T03:01:53.706Z,6.52
2018-10-02T03:04:23.165Z,6.50
2018-10-02T03:06:52.535Z,6.50
2018-10-02T03:09:21.926Z,6.48
2018-10-02T03:11:51.361Z,6.56
2018-10-02T03:14:20.723Z,6.55
2018-10-02T03:16:50.150Z,6.58
2018-10-02T03:19:19.549Z,6.54
2018-10-02T03:21:48.958Z,6.52
2018-10-02T03:24:18.405Z,6.46
2018-10-02T03:26:48.343Z,6.47
2018-10-02T03:29:17.678Z,6.54
2018-10-02T03:31:47.010Z,6.50
2018-10-02T03:34:16.369Z,6.50
2018-10-02T03:36:45.706Z,6.57
2018-10-02T03:39:15.103Z,6.50
2018-10-02T03:41:44.485Z,6.50
2018-10-02T03:44:13.915Z,6.50
2018-10-02T03:46:43.354Z,6.61
2018-10-02T03:49:12.687Z,6.56
2018-10-02T03:51:42.132Z,6.56
2018-10-02T03:54:11.646Z,6.59
2018-10-02T03:56:40.967Z,6.63
2018-10-02T03:59:10.399Z,6.62
2018-10-02T04:01:39.740Z,6.57
2018-10-02T04:04:09.162Z,6.67
2018-10-02T04:06:38.883Z,6.65
2018-10-02T04:09:10.990Z,6.59
2018-10-02T04:11:40.355Z,6.60
2018-10-02T04:14:10.653Z,6.60
2018-10-02T04:16:40.080Z,6.59
2018-10-02T04:19:09.441Z,6.62
2018-10-02T04:21:38.866Z,6.66
2018-10-02T04:24:09.154Z,6.60
2018-10-02T04:26:38.940Z,6.67
2018-10-02T04:29:08.526Z,6.69
2018-10-02T04:31:38.658Z,6.64
2018-10-02T04:34:08.066Z,6.71
2018-10-02T04:36:37.408Z,6.73
2018-10-02T04:39:09.326Z,6.82
2018-10-02T04:41:39.187Z,6.77
2018-10-02T04:44:08.603Z,6.78
2018-10-02T04:46:38.029Z,6.79
2018-10-02T04:49:07.397Z,6.76
2018-10-02T04:51:36.810Z,6.76
2018-10-02T04:54:06.367Z,6.78
2018-10-02T04:56:35.711Z,6.80
2018-10-02T04:59:05.068Z,6.76
2018-10-02T05:01:34.486Z,6.77
2018-10-02T05:04:03.926Z,6.82
2018-10-02T05:06:33.357Z,6.79
2018-10-02T05:09:02.736Z,6.86
2018-10-02T05:11:32.259Z,6.96
2018-10-02T05:14:01.749Z,6.96
2018-10-02T05:16:31.206Z,6.93
2018-10-02T05:19:00.727Z,6.98
2018-10-02T05:21:30.102Z,6.97
2018-10-02T05:23:59.660Z,6.99
2018-10-02T05:26:29.074Z,7.06
2018-10-02T05:28:58.426Z,7.06
2018-10-02T05:31:27.822Z,7.03
2018-10-02T05:33:57.211Z,7.05
2018-10-02T05:36:26.586Z,7.12
2018-10-02T05:38:55.986Z,7.12
2018-10-02T05:41:25.470Z,7.16
2018-10-02T05:43:54.838Z,7.22
2018-10-02T05:46:24.226Z,7.24
2018-10-02T05:48:53.685Z,7.24
2018-10-02T05:51:23.063Z,7.28
2018-10-02T05:53:52.547Z,7.29
2018-10-02T05:56:21.868Z,7.33
2018-10-02T05:58:51.270Z,7.32
2018-10-02T06:01:20.603Z,7.36
2018-10-02T06:03:50.063Z,7.29
2018-10-02T06:06:19.458Z,7.34
2018-10-02T06:08:48.946Z,7.30
2018-10-02T06:11:18.327Z,7.27
2018-10-02T06:13:47.810Z,7.28
2018-10-02T06:16:17.190Z,7.30
2018-10-02T06:18:46.554Z,7.38
2018-10-02T06:21:16.009Z,7.36
2018-10-02T06:23:45.385Z,7.43
2018-10-02T06:26:14.779Z,7.39
2018-10-02T06:28:44.146Z,7.41
2018-10-02T06:31:13.486Z,7.38
2018-10-02T06:33:42.930Z,7.38
2018-10-02T06:36:12.286Z,7.37
2018-10-02T06:38:41.796Z,7.38
2018-10-02T06:41:11.095Z,7.39
2018-10-02T06:43:40.527Z,7.41
2018-10-02T06:46:10.000Z,7.42
2018-10-02T06:48:39.356Z,7.41
2018-10-02T06:51:08.751Z,7.46
2018-10-02T06:53:38.155Z,7.36
2018-10-02T06:56:08.066Z,7.42
2018-10-02T06:58:37.458Z,7.42
2018-10-02T07:01:07.010Z,7.42
2018-10-02T07:03:36.489Z,7.41
2018-10-02T07:06:05.934Z,7.43
2018-10-02T07:08:35.322Z,7.41
2018-10-02T07:11:04.744Z,7.44
2018-10-02T07:13:34.139Z,7.54
2018-10-02T07:16:03.629Z,7.53
2018-10-02T07:18:33.140Z,7.59
2018-10-02T07:21:02.663Z,7.49
2018-10-02T07:23:32.023Z,7.51
2018-10-02T07:26:01.447Z,7.54
2018-10-02T07:28:30.799Z,7.58
2018-10-02T07:31:00.232Z,7.68
2018-10-02T07:33:29.622Z,7.69
2018-10-02T07:35:59.150Z,7.71
2018-10-02T07:38:28.736Z,7.70
2018-10-02T07:40:58.137Z,7.70
2018-10-02T07:43:27.924Z,7.74
2018-10-02T07:45:57.338Z,7.78
2018-10-02T07:48:26.813Z,7.74
2018-10-02T07:50:56.254Z,7.80
2018-10-02T07:53:25.673Z,7.79
2018-10-02T07:55:55.046Z,7.74
2018-10-02T07:58:24.581Z,7.77
2018-10-02T08:00:54.206Z,7.69
2018-10-02T08:03:24.086Z,7.66
2018-10-02T08:05:53.486Z,7.66
2018-10-02T08:08:22.888Z,7.63
2018-10-02T08:10:52.813Z,7.68
2018-10-02T08:13:22.253Z,7.68
2018-10-02T08:15:51.626Z,7.75
2018-10-02T08:18:21.021Z,7.77
2018-10-02T08:20:50.531Z,7.69
2018-10-02T08:23:19.957Z,7.71
2018-10-02T08:25:50.310Z,7.68
2018-10-02T08:28:21.273Z,7.73
2018-10-02T08:30:51.276Z,7.79
2018-10-02T08:33:20.878Z,7.78
2018-10-02T08:35:50.324Z,7.78
2018-10-02T08:38:19.623Z,7.87
2018-10-02T08:40:49.074Z,7.78
2018-10-02T08:43:18.540Z,7.83
2018-10-02T08:45:47.850Z,7.75
2018-10-02T08:48:17.234Z,7.71
2018-10-02T08:50:46.729Z,7.73
2018-10-02T08:53:16.055Z,7.74
2018-10-02T08:55:45.566Z,7.65
2018-10-02T08:58:15.078Z,7.68
2018-10-02T09:00:44.571Z,7.73
2018-10-02T09:03:13.892Z,7.74
2018-10-02T09:05:43.322Z,7.76
2018-10-02T09:08:12.703Z,7.74
2018-10-02T09:10:42.106Z,7.74
2018-10-02T09:13:12.111Z,7.68
2018-10-02T09:15:41.622Z,7.67
2018-10-02T09:18:11.004Z,7.77
2018-10-02T09:20:40.504Z,7.81
2018-10-02T09:23:09.885Z,7.78
2018-10-02T09:25:39.250Z,7.86
2018-10-02T09:28:08.851Z,7.84
2018-10-02T09:30:43.282Z,7.91
2018-10-02T09:33:17.752Z,7.93
2018-10-02T09:35:52.433Z,7.90
2018-10-02T09:38:26.887Z,7.97
2018-10-02T09:41:01.427Z,7.94
2018-10-02T09:43:39.253Z,7.96
2018-10-02T09:46:08.743Z,7.97
2018-10-02T09:48:38.244Z,7.98
2018-10-02T09:51:07.594Z,7.98
2018-10-02T09:53:37.048Z,7.93
2018-10-02T09:56:06.494Z,8.00
2018-10-02T09:58:35.930Z,8.06
2018-10-02T10:02:10.094Z,8.04
2018-10-02T10:04:39.537Z,8.03
2018-10-02T10:07:09.054Z,8.09
2018-10-02T10:09:38.516Z,8.07
2018-10-02T10:12:08.220Z,8.04
2018-10-02T10:14:37.694Z,8.07
2018-10-02T10:17:07.217Z,8.12
2018-10-02T10:19:36.600Z,8.14
2018-10-02T10:22:06.486Z,8.19
2018-10-02T10:24:35.876Z,8.21
2018-10-02T10:27:05.285Z,8.25
2018-10-02T10:29:34.687Z,8.28
2018-10-02T10:32:04.204Z,8.32
2018-10-02T10:34:33.604Z,8.28
2018-10-02T10:37:03.041Z,8.35
2018-10-02T10:39:32.419Z,8.36
2018-10-02T10:42:01.964Z,8.47
2018-10-02T10:44:31.358Z,8.52
2018-10-02T10:47:00.865Z,8.53
2018-10-02T10:49:30.227Z,8.44
2018-10-02T10:51:59.597Z,8.44
2018-10-02T10:54:29.035Z,8.37
2018-10-02T10:56:58.434Z,8.42
2018-10-02T10:59:27.878Z,8.40
2018-10-02T11:01:57.380Z,8.43
2018-10-02T11:04:26.926Z,8.51
2018-10-02T11:06:56.418Z,8.46
2018-10-02T11:09:25.985Z,8.52
2018-10-02T11:11:55.412Z,8.51
2018-10-02T11:14:24.785Z,8.66
2018-10-02T11:16:54.223Z,8.69
2018-10-02T11:19:23.644Z,8.65
2018-10-02T11:21:52.958Z,8.72
2018-10-02T11:24:22.402Z,8.67
2018-10-02T11:26:51.895Z,8.68
2018-10-02T11:29:21.280Z,8.68
2018-10-02T11:31:50.669Z,8.69
2018-10-02T11:34:20.045Z,8.69
2018-10-02T11:36:49.385Z,8.76
2018-10-02T11:39:18.886Z,8.80
2018-10-02T11:41:48.282Z,8.80
2018-10-02T11:44:17.790Z,8.81
2018-10-02T11:46:47.167Z,8.85
2018-10-02T11:49:16.584Z,8.86
2018-10-02T11:51:45.913Z,8.89
2018-10-02T11:54:15.394Z,8.84
2018-10-02T11:56:44.754Z,8.85
2018-10-02T11:59:14.185Z,8.84
2018-10-02T12:01:43.542Z,8.85
2018-10-02T12:04:13.005Z,8.88
2018-10-02T12:06:42.437Z,8.90
2018-10-02T12:09:11.828Z,8.97
2018-10-02T12:11:41.291Z,9.01
2018-10-02T12:14:10.698Z,9.03
2018-10-02T12:16:41.028Z,9.05
2018-10-02T12:19:10.411Z,9.17
2018-10-02T12:21:39.739Z,9.18
2018-10-02T12:24:09.163Z,9.25
2018-10-02T12:26:38.873Z,9.33
2018-10-02T12:29:08.265Z,9.28
2018-10-02T12:31:37.655Z,9.35
2018-10-02T12:34:07.358Z,9.40
2018-10-02T12:36:36.981Z,9.40
2018-10-02T12:39:08.225Z,9.48
2018-10-02T12:41:37.662Z,9.48
2018-10-02T12:44:07.075Z,9.45
2018-10-02T12:46:36.524Z,9.48
2018-10-02T12:49:06.071Z,9.58
2018-10-02T12:51:35.384Z,9.62
2018-10-02T12:54:04.810Z,9.65
2018-10-02T12:56:34.204Z,9.68
2018-10-02T12:59:03.630Z,9.72
2018-10-02T13:01:32.994Z,9.76
2018-10-02T13:04:02.482Z,9.90
2018-10-02T13:06:31.906Z,10.04
2018-10-02T13:09:01.314Z,9.94
2018-10-02T13:13:00.307Z,10.01
2018-10-02T13:15:29.726Z,10.05
2018-10-02T13:17:59.161Z,10.11
2018-10-02T13:20:28.636Z,10.11
2018-10-02T13:22:57.986Z,10.13
2018-10-02T13:25:27.503Z,10.14
2018-10-02T13:27:56.869Z,10.18
2018-10-02T13:30:26.294Z,10.18
2018-10-02T13:32:55.690Z,10.20
2018-10-02T13:35:25.115Z,10.25
2018-10-02T13:37:54.518Z,10.33
2018-10-02T13:40:23.854Z,10.34
2018-10-02T13:42:53.222Z,10.36
2018-10-02T13:45:22.618Z,10.39
2018-10-02T13:47:52.005Z,10.43
2018-10-02T13:50:21.438Z,10.41
2018-10-02T13:52:50.976Z,10.43
2018-10-02T13:55:20.598Z,10.46
2018-10-02T13:57:49.907Z,10.50
2018-10-02T14:00:19.642Z,10.59
2018-10-02T14:02:49.037Z,10.63
2018-10-02T14:05:18.489Z,10.79
2018-10-02T14:07:47.851Z,10.84
2018-10-02T14:10:17.285Z,10.90
2018-10-02T14:12:46.670Z,10.98
2018-10-02T14:15:16.108Z,11.01
2018-10-02T14:17:45.630Z,11.09
2018-10-02T14:20:14.999Z,11.18
2018-10-02T14:22:44.450Z,11.23
2018-10-02T14:25:13.906Z,11.20
2018-10-02T14:27:43.395Z,11.15
2018-10-02T14:30:12.895Z,11.17
2018-10-02T14:32:42.317Z,11.22
2018-10-02T14:35:11.687Z,11.22
2018-10-02T14:37:41.142Z,11.19
2018-10-02T14:40:10.608Z,11.23
2018-10-02T14:42:39.978Z,11.23
2018-10-02T14:45:09.459Z,11.29
2018-10-02T14:47:38.992Z,11.25
2018-10-02T14:50:08.487Z,11.28
2018-10-02T14:52:38.326Z,11.29
2018-10-02T14:55:07.330Z,11.26
2018-10-02T14:57:36.780Z,11.33
2018-10-02T15:00:06.446Z,11.34
2018-10-02T15:02:35.868Z,11.37
2018-10-02T15:05:05.362Z,11.38
2018-10-02T15:07:34.867Z,11.42
2018-10-02T15:10:04.581Z,11.48
2018-10-02T15:12:34.062Z,11.51
2018-10-02T15:15:03.595Z,11.55
2018-10-02T15:17:32.963Z,11.55
2018-10-02T15:20:02.392Z,11.51
2018-10-02T15:22:31.867Z,11.49
2018-10-02T15:25:01.250Z,11.39
2018-10-02T15:27:30.740Z,11.34
2018-10-02T15:30:00.173Z,11.23
2018-10-02T15:32:29.594Z,11.16
2018-10-02T15:34:58.950Z,11.09
2018-10-02T15:37:28.388Z,11.07
2018-10-02T15:39:57.910Z,11.00
2018-10-02T15:42:27.377Z,11.03
2018-10-02T15:44:56.834Z,11.00
2018-10-02T15:47:26.282Z,11.02
2018-10-02T15:49:55.723Z,10.99
2018-10-02T15:52:25.178Z,10.97
2018-10-02T15:54:54.749Z,10.88
2018-10-02T15:57:24.273Z,10.88
2018-10-02T15:59:53.731Z,10.98
2018-10-02T16:02:23.267Z,10.98
2018-10-02T16:04:52.638Z,11.02
2018-10-02T16:07:22.049Z,10.89
2018-10-02T16:09:52.485Z,10.92
2018-10-02T16:12:22.885Z,10.90
2018-10-02T16:17:31.025Z,11.04
2018-10-02T16:20:01.298Z,11.01
2018-10-02T16:22:30.747Z,11.10
2018-10-02T16:25:00.223Z,11.13
2018-10-02T16:27:29.546Z,11.03
2018-10-02T16:29:58.943Z,11.26
2018-10-02T16:32:28.922Z,11.28
2018-10-02T16:34:59.888Z,11.27
2018-10-02T16:37:30.182Z,11.16
2018-10-02T16:40:00.303Z,11.09
2018-10-02T16:42:30.822Z,11.21
2018-10-02T16:45:00.846Z,11.14
2018-10-02T16:47:32.271Z,11.06
2018-10-02T16:50:03.498Z,10.98
2018-10-02T16:55:30.033Z,11.17
2018-10-02T16:58:00.822Z,11.13
2018-10-02T17:00:30.842Z,11.09
2018-10-02T17:03:00.763Z,11.10
2018-10-02T17:05:31.591Z,11.10
2018-10-02T17:08:01.267Z,11.19
2018-10-02T17:10:31.125Z,11.13
2018-10-02T17:13:00.655Z,11.13
2018-10-02T17:15:30.723Z,11.01
2018-10-02T17:20:58.219Z,11.16
2018-10-02T17:23:27.694Z,11.20
2018-10-02T17:25:57.508Z,11.22
2018-10-02T17:28:26.897Z,11.10
2018-10-02T17:30:56.513Z,11.11
2018-10-02T17:33:27.055Z,11.14
2018-10-02T17:35:56.493Z,11.15
2018-10-02T17:38:25.962Z,11.15
2018-10-02T17:40:56.047Z,11.17
2018-10-02T17:43:28.512Z,11.09
2018-10-02T17:46:00.052Z,11.02
2018-10-02T17:48:29.637Z,10.99
2018-10-02T17:50:59.274Z,10.93
2018-10-02T17:53:32.158Z,10.95
2018-10-02T17:56:03.096Z,10.95
2018-10-02T17:58:32.858Z,10.94
2018-10-02T18:01:02.246Z,10.96
2018-10-02T18:03:31.741Z,10.99
2018-10-02T18:06:01.630Z,10.93
2018-10-02T18:11:28.393Z,10.82
2018-10-02T18:13:58.380Z,10.84
2018-10-02T18:16:28.056Z,10.81
2018-10-02T18:18:57.957Z,10.84
2018-10-02T18:21:28.243Z,10.85
2018-10-02T18:23:58.181Z,10.86
2018-10-02T18:26:28.296Z,10.89
2018-10-02T18:28:57.879Z,10.83
2018-10-02T18:31:27.845Z,10.77
2018-10-02T18:36:55.423Z,10.81
2018-10-02T18:39:24.918Z,10.81
2018-10-02T18:41:55.373Z,10.80
2018-10-02T18:44:25.469Z,10.83
2018-10-02T18:46:54.999Z,10.89
2018-10-02T18:49:24.903Z,10.89
2018-10-02T18:51:54.497Z,10.97
2018-10-02T18:54:25.570Z,11.05
2018-10-02T19:00:09.636Z,10.50
2018-10-02T19:02:39.158Z,10.23
2018-10-02T19:05:09.543Z,10.13
2018-10-02T19:07:39.295Z,10.05
2018-10-02T19:10:09.544Z,9.96
2018-10-02T19:12:39.071Z,9.85
2018-10-02T19:15:11.874Z,9.83
2018-10-02T19:17:41.400Z,9.88
2018-10-02T19:20:17.567Z,9.84
2018-10-02T19:22:46.990Z,9.86
2018-10-02T19:25:22.339Z,9.93
2018-10-02T19:27:51.805Z,9.93
2018-10-02T19:30:27.003Z,9.97
2018-10-02T19:32:57.287Z,9.96
2018-10-02T19:35:27.414Z,9.95
2018-10-02T19:38:02.515Z,9.99
2018-10-02T19:40:32.219Z,9.96
2018-10-02T19:43:02.509Z,9.94
2018-10-02T19:45:37.091Z,9.93
2018-10-02T19:48:07.316Z,9.97
2018-10-02T19:50:37.437Z,10.00
2018-10-02T19:53:07.459Z,9.96
2018-10-02T19:55:36.759Z,9.90
2018-10-02T19:58:06.370Z,9.94
2018-10-02T20:00:36.019Z,10.09
2018-10-02T20:03:05.370Z,10.13
2018-10-02T20:05:34.738Z,10.11
2018-10-02T20:08:04.195Z,10.12
2018-10-02T20:10:33.676Z,10.08
2018-10-02T20:13:03.212Z,10.10
2018-10-02T20:15:32.677Z,10.08
2018-10-02T20:18:02.066Z,10.12
2018-10-02T20:20:31.535Z,10.16
2018-10-02T20:23:02.005Z,10.23
2018-10-02T20:25:31.754Z,10.13
2018-10-02T20:28:01.178Z,10.13
2018-10-02T20:30:33.213Z,10.11
2018-10-02T20:35:59.643Z,10.18
2018-10-02T20:38:30.022Z,10.25
2018-10-02T20:41:00.126Z,10.12
2018-10-02T20:43:29.537Z,10.01
2018-10-02T20:46:01.447Z,9.95
2018-10-02T20:48:31.079Z,9.93
2018-10-02T20:51:00.902Z,9.86
2018-10-02T20:53:30.294Z,9.89
2018-10-02T20:56:00.346Z,9.90
2018-10-02T21:01:27.611Z,9.80
2018-10-02T21:03:57.012Z,9.79
2018-10-02T21:06:26.685Z,9.76
2018-10-02T21:08:57.048Z,9.72
2018-10-02T21:11:27.022Z,9.76
2018-10-02T21:13:56.440Z,9.71
2018-10-02T21:16:25.884Z,9.69
2018-10-02T21:18:56.426Z,9.65
2018-10-02T21:21:26.746Z,9.60
2018-10-02T21:24:17.429Z,9.66
2018-10-02T21:26:47.346Z,9.71
2018-10-02T21:29:17.757Z,9.80
2018-10-02T21:31:48.016Z,9.74
2018-10-02T21:34:18.275Z,9.74
2018-10-02T21:36:49.982Z,9.71
2018-10-02T21:39:20.587Z,9.75
2018-10-02T21:41:50.029Z,9.77
2018-10-02T21:44:19.437Z,9.68
2018-10-02T21:47:01.141Z,9.54
2018-10-02T21:49:31.042Z,9.51
2018-10-02T21:52:01.907Z,9.46
2018-10-02T21:54:31.345Z,9.37
2018-10-02T21:57:01.041Z,9.30
2018-10-02T21:59:30.782Z,9.33
2018-10-02T22:02:00.174Z,9.27
2018-10-02T22:04:29.926Z,9.26
2018-10-02T22:06:59.322Z,9.36
2018-10-02T22:09:32.725Z,9.36
2018-10-02T22:12:02.187Z,9.38
2018-10-02T22:14:32.415Z,9.39
2018-10-02T22:17:02.419Z,9.36
2018-10-02T22:19:32.019Z,9.31
2018-10-02T22:22:01.994Z,9.27
2018-10-02T22:24:32.460Z,9.21
2018-10-02T22:27:03.277Z,9.21
2018-10-02T22:29:33.417Z,9.22
2018-10-02T22:32:03.638Z,9.22
2018-10-02T22:37:57.722Z,9.18
2018-10-02T22:40:27.202Z,9.14
2018-10-02T22:42:56.722Z,9.12
2018-10-02T22:45:26.305Z,9.16
2018-10-02T22:47:55.818Z,9.14
2018-10-02T22:50:26.114Z,9.17
2018-10-02T22:52:55.501Z,9.22
2018-10-02T22:55:24.965Z,9.27
2018-10-02T22:57:54.762Z,9.27
2018-10-02T23:00:24.826Z,9.28
2018-10-02T23:02:54.616Z,9.28
2018-10-02T23:05:24.147Z,9.29
2018-10-02T23:07:53.594Z,9.27
2018-10-02T23:10:23.091Z,9.28
2018-10-02T23:12:57.110Z,9.20
2018-10-02T23:15:27.497Z,9.26
2018-10-02T23:17:56.917Z,9.30
2018-10-02T23:20:26.350Z,9.33
2018-10-02T23:25:33.131Z,9.21
2018-10-02T23:28:03.031Z,9.25
2018-10-02T23:30:32.433Z,9.32
2018-10-02T23:33:01.890Z,9.28
2018-10-02T23:35:31.538Z,9.26
2018-10-02T23:38:00.879Z,9.34
2018-10-02T23:40:30.958Z,9.29
2018-10-02T23:43:01.366Z,9.35
2018-10-02T23:45:31.137Z,9.42
2018-10-02T23:50:58.706Z,9.23
2018-10-02T23:53:28.081Z,9.21
2018-10-02T23:55:58.453Z,9.11
2018-10-02T23:58:27.933Z,9.13
